sensor_id;sensor_type;location;lat;lon;timestamp;P1;durP1;ratioP1;P2;durP2;ratioP2
38248;SDS011;24045;51.138;17.126;2023-05-20T00:27:59;31.50;;;24.80;;
38248;SDS011;24045;51.138;17.126;2023-05-20T00:43:02;28.90;;;21.60;;
38248;SDS011;24045;51.138;17.126;2023-05-20T01:28:13;26.30;;;18.30;;
38248;SDS011;24045;51.138;17.126;2023-05-20T01:43:20;23.80;;;17.20;;
38248;SDS011;24045;51.138;17.126;2023-05-20T01:58:24;24.80;;;18.60;;
38248;SDS011;24045;51.138;17.126;2023-05-20T02:28:31;22.30;;;17.00;;
38248;SDS011;24045;51.138;17.126;2023-05-20T02:58:37;24.80;;;17.40;;
38248;SDS011;24045;51.138;17.126;2023-05-20T03:13:40;26.30;;;17.30;;
38248;SDS011;24045;51.138;17.126;2023-05-20T03:28:46;23.10;;;16.10;;
38248;SDS011;24045;51.138;17.126;2023-05-20T03:58:51;22.90;;;16.40;;
38248;SDS011;24045;51.138;17.126;2023-05-20T04:13:54;21.20;;;15.90;;
38248;SDS011;24045;51.138;17.126;2023-05-20T04:44:01;23.10;;;15.30;;
38248;SDS011;24045;51.138;17.126;2023-05-20T04:59:05;20.50;;;14.70;;
38248;SDS011;24045;51.138;17.126;2023-05-20T05:44:13;23.80;;;17.10;;
38248;SDS011;24045;51.138;17.126;2023-05-20T05:59:18;25.70;;;19.90;;
38248;SDS011;24045;51.138;17.126;2023-05-20T06:14:21;32.50;;;22.60;;
38248;SDS011;24045;51.138;17.126;2023-05-20T06:29:24;28.80;;;21.90;;
38248;SDS011;24045;51.138;17.126;2023-05-20T06:44:27;27.70;;;20.00;;
38248;SDS011;24045;51.138;17.126;2023-05-20T06:59:30;20.70;;;14.50;;
38248;SDS011;24045;51.138;17.126;2023-05-20T07:14:33;25.80;;;19.00;;
38248;SDS011;24045;51.138;17.126;2023-05-20T07:29:37;20.60;;;15.60;;
38248;SDS011;24045;51.138;17.126;2023-05-20T07:44:39;20.10;;;14.50;;
38248;SDS011;24045;51.138;17.126;2023-05-20T07:59:42;19.80;;;15.20;;
38248;SDS011;24045;51.138;17.126;2023-05-20T08:14:46;20.10;;;14.60;;
38248;SDS011;24045;51.138;17.126;2023-05-20T08:29:49;18.40;;;14.10;;
38248;SDS011;24045;51.138;17.126;2023-05-20T08:44:52;17.40;;;12.40;;
38248;SDS011;24045;51.138;17.126;2023-05-20T08:59:56;15.20;;;11.40;;
38248;SDS011;24045;51.138;17.126;2023-05-20T09:14:59;14.70;;;12.20;;
38248;SDS011;24045;51.138;17.126;2023-05-20T09:30:05;16.10;;;12.10;;
38248;SDS011;24045;51.138;17.126;2023-05-20T09:45:09;16.50;;;12.30;;
38248;SDS011;24045;51.138;17.126;2023-05-20T10:00:12;15.10;;;11.70;;
38248;SDS011;24045;51.138;17.126;2023-05-20T10:30:48;20.80;;;13.10;;
38248;SDS011;24045;51.138;17.126;2023-05-20T10:45:53;16.50;;;12.20;;
38248;SDS011;24045;51.138;17.126;2023-05-20T11:00:57;17.80;;;12.80;;
38248;SDS011;24045;51.138;17.126;2023-05-20T11:16:00;15.60;;;12.50;;
38248;SDS011;24045;51.138;17.126;2023-05-20T11:31:04;15.60;;;12.30;;
38248;SDS011;24045;51.138;17.126;2023-05-20T11:46:08;18.40;;;13.50;;
38248;SDS011;24045;51.138;17.126;2023-05-20T12:01:11;14.90;;;12.90;;
38248;SDS011;24045;51.138;17.126;2023-05-20T12:16:24;20.70;;;15.90;;
38248;SDS011;24045;51.138;17.126;2023-05-20T12:31:27;18.20;;;13.50;;
38248;SDS011;24045;51.138;17.126;2023-05-20T12:46:30;17.40;;;14.10;;
38248;SDS011;24045;51.138;17.126;2023-05-20T13:01:33;27.80;;;20.80;;
38248;SDS011;24045;51.138;17.126;2023-05-20T13:16:36;19.20;;;15.90;;
38248;SDS011;24045;51.138;17.126;2023-05-20T13:31:39;21.40;;;17.40;;
38248;SDS011;24045;51.138;17.126;2023-05-20T13:46:42;24.00;;;21.50;;
38248;SDS011;24045;51.138;17.126;2023-05-20T14:01:45;29.10;;;26.40;;
38248;SDS011;24045;51.138;17.126;2023-05-20T14:16:48;24.80;;;18.40;;
38248;SDS011;24045;51.138;17.126;2023-05-20T14:31:51;29.20;;;23.30;;
38248;SDS011;24045;51.138;17.126;2023-05-20T14:46:54;22.20;;;19.20;;
38248;SDS011;24045;51.138;17.126;2023-05-20T15:01:57;28.50;;;24.50;;
38248;SDS011;24045;51.138;17.126;2023-05-20T15:17:01;56.50;;;48.40;;
38248;SDS011;24045;51.138;17.126;2023-05-20T15:32:05;28.20;;;23.70;;
38248;SDS011;24045;51.138;17.126;2023-05-20T15:47:10;26.90;;;23.50;;
38248;SDS011;24045;51.138;17.126;2023-05-20T16:02:13;27.40;;;24.60;;
38248;SDS011;24045;51.138;17.126;2023-05-20T16:17:16;26.20;;;22.50;;
38248;SDS011;24045;51.138;17.126;2023-05-20T16:32:22;23.40;;;20.80;;
38248;SDS011;24045;51.138;17.126;2023-05-20T16:47:30;28.00;;;24.20;;
38248;SDS011;24045;51.138;17.126;2023-05-20T17:02:36;25.30;;;22.60;;
38248;SDS011;24045;51.138;17.126;2023-05-20T17:17:39;26.00;;;20.80;;
38248;SDS011;24045;51.138;17.126;2023-05-20T17:32:43;26.10;;;22.10;;
38248;SDS011;24045;51.138;17.126;2023-05-20T17:47:46;28.80;;;24.50;;
38248;SDS011;24045;51.138;17.126;2023-05-20T18:02:49;26.40;;;23.30;;
38248;SDS011;24045;51.138;17.126;2023-05-20T18:17:54;30.30;;;27.00;;
38248;SDS011;24045;51.138;17.126;2023-05-20T18:32:57;30.90;;;25.60;;
38248;SDS011;24045;51.138;17.126;2023-05-20T18:48:00;32.60;;;28.70;;
38248;SDS011;24045;51.138;17.126;2023-05-20T19:03:03;84.40;;;59.20;;
38248;SDS011;24045;51.138;17.126;2023-05-20T19:18:07;44.90;;;37.80;;
38248;SDS011;24045;51.138;17.126;2023-05-20T19:33:10;50.40;;;39.90;;
38248;SDS011;24045;51.138;17.126;2023-05-20T19:48:13;42.70;;;34.90;;
38248;SDS011;24045;51.138;17.126;2023-05-20T20:03:16;36.40;;;31.40;;
38248;SDS011;24045;51.138;17.126;2023-05-20T20:18:20;34.10;;;29.30;;
38248;SDS011;24045;51.138;17.126;2023-05-20T20:33:24;32.30;;;28.30;;
38248;SDS011;24045;51.138;17.126;2023-05-20T20:48:29;35.00;;;29.30;;
38248;SDS011;24045;51.138;17.126;2023-05-20T21:03:32;36.00;;;31.20;;
38248;SDS011;24045;51.138;17.126;2023-05-20T21:18:36;37.20;;;32.90;;
38248;SDS011;24045;51.138;17.126;2023-05-20T21:33:38;37.10;;;32.30;;
38248;SDS011;24045;51.138;17.126;2023-05-20T21:48:43;36.00;;;31.00;;
38248;SDS011;24045;51.138;17.126;2023-05-20T22:03:49;34.30;;;30.70;;
38248;SDS011;24045;51.138;17.126;2023-05-20T22:18:53;34.00;;;29.90;;
38248;SDS011;24045;51.138;17.126;2023-05-20T22:33:58;30.80;;;27.50;;
38248;SDS011;24045;51.138;17.126;2023-05-20T22:49:01;32.90;;;27.50;;
38248;SDS011;24045;51.138;17.126;2023-05-20T23:04:05;32.70;;;27.10;;
38248;SDS011;24045;51.138;17.126;2023-05-20T23:19:07;29.20;;;23.80;;
38248;SDS011;24045;51.138;17.126;2023-05-20T23:34:10;26.90;;;23.90;;
38248;SDS011;24045;51.138;17.126;2023-05-20T23:49:14;27.90;;;22.80;;
